Terminal Aerodrome Forecast
Issued by NWS Boise, ID

Home | Current Version | Previous Version | Text Only | Print | Product List | Glossary On
Versions: 1 2 3 4 5 6 7 8 9 10 11 12 13 14 15 16 17 18 19 20 21 22 23 24 25 26 27 28 29 30 31 32 33 34 35 36 37 38 39 40 41 42
266
FTUS45 KBOI 202219 AAA
TAFBNO
TAF AMD
KBNO 202219Z 2022/2118 07012KT 2SM -SHSN BR SCT008 OVC015
      TEMPO 2022/2024 1/2SM SHSN BKN008
     FM210400 VRB05KT P6SM VCFG SCT008 BKN025
     FM211700 VRB06KT P6SM SCT025 BKN035=

USA.gov is the U.S. government's official web portal to all federal, state and local government web resources and services.